Time;durP1;ratioP1;P1;durP2;ratioP2;P2;SDS_P1;SDS_P2;PMS_P1;PMS_P2;Temp;Humidity;BMP_temperature;BMP_pressure;BME280_temperature;BME280_humidity;BME280_pressure;Samples;Min_cycle;Max_cycle;Signal;HPM_P1;HPM_P2
2021/04/30 00:01:11;;;;;;;10.32;7.37;;;;;;;12.37;61.08;100264.32;1804734;78;21192;-75
2021/04/30 00:03:39;;;;;;;10.35;7.83;;;;;;;12.40;61.06;100264.28;1813903;78;21235;-75
2021/04/30 00:06:06;;;;;;;9.40;8.18;;;;;;;12.41;61.03;100261.34;1804021;77;21171;-75
2021/04/30 00:08:34;;;;;;;8.95;7.80;;;;;;;12.43;60.96;100262.39;1825856;77;21378;-75
2021/04/30 00:11:02;;;;;;;9.27;7.47;;;;;;;12.46;60.88;100263.72;1821959;78;21224;-75
2021/04/30 00:13:31;;;;;;;10.28;7.95;;;;;;;12.49;60.83;100263.17;1836116;77;22335;-74
2021/04/30 00:15:59;;;;;;;9.78;7.80;;;;;;;12.51;60.82;100257.02;1844398;77;21204;-75
2021/04/30 00:18:26;;;;;;;10.60;7.70;;;;;;;12.53;60.86;100260.20;1816307;78;21219;-74
2021/04/30 00:20:56;;;;;;;9.93;7.47;;;;;;;12.53;60.80;100255.64;1817666;77;21800;-73
2021/04/30 00:23:25;;;;;;;9.68;7.65;;;;;;;12.55;60.68;100255.38;1803536;79;21221;-75
2021/04/30 00:25:56;;;;;;;10.60;8.23;;;;;;;12.56;60.68;100259.10;1819760;78;21234;-73
2021/04/30 00:28:24;;;;;;;11.38;8.33;;;;;;;12.56;60.79;100253.75;1823092;78;21492;-73
2021/04/30 00:30:53;;;;;;;8.37;7.50;;;;;;;12.57;60.71;100254.03;1816123;78;21203;-73
2021/04/30 00:33:21;;;;;;;9.70;7.80;;;;;;;12.58;60.73;100255.62;1813753;78;21457;-75
2021/04/30 00:35:49;;;;;;;9.38;8.30;;;;;;;12.59;60.81;100253.73;1814494;78;21274;-74
2021/04/30 00:38:17;;;;;;;11.03;8.25;;;;;;;12.57;60.85;100252.69;1815144;78;21214;-72
2021/04/30 00:40:46;;;;;;;10.28;8.33;;;;;;;12.58;60.83;100253.48;1816489;78;21151;-75
2021/04/30 00:43:14;;;;;;;10.73;8.33;;;;;;;12.58;60.78;100253.48;1825380;78;21422;-76
2021/04/30 00:45:42;;;;;;;9.03;8.13;;;;;;;12.58;60.69;100258.84;1814326;77;21845;-76
2021/04/30 00:48:10;;;;;;;10.72;7.90;;;;;;;12.58;60.74;100256.16;1808457;78;21647;-75
2021/04/30 00:50:39;;;;;;;10.40;8.00;;;;;;;12.58;60.75;100257.50;1813295;77;21186;-75
2021/04/30 00:53:07;;;;;;;12.10;7.80;;;;;;;12.57;60.74;100257.22;1800647;77;21187;-74
2021/04/30 00:55:37;;;;;;;11.83;8.40;;;;;;;12.57;60.70;100252.69;1818087;78;21589;-74
2021/04/30 00:58:04;;;;;;;10.68;7.60;;;;;;;12.56;60.70;100245.70;1818391;78;21382;-75
2021/04/30 01:00:35;;;;;;;9.53;7.75;;;;;;;12.57;60.66;100253.20;1812693;78;21192;-76
2021/04/30 01:03:07;;;;;;;10.30;8.10;;;;;;;12.55;60.69;100244.66;1820342;77;21720;-74
2021/04/30 01:05:36;;;;;;;9.18;8.13;;;;;;;12.54;60.71;100243.86;1771582;79;22051;-73
2021/04/30 01:08:05;;;;;;;8.30;7.40;;;;;;;12.55;60.66;100245.45;1812681;77;21195;-73
2021/04/30 01:10:34;;;;;;;8.97;6.97;;;;;;;12.54;60.60;100244.41;1820110;78;21350;-74
2021/04/30 01:13:02;;;;;;;8.73;7.50;;;;;;;12.55;60.56;100244.66;1838830;77;21559;-73
2021/04/30 01:15:30;;;;;;;10.58;6.95;;;;;;;12.55;60.58;100241.98;1826353;77;21177;-74
2021/04/30 01:18:00;;;;;;;8.53;7.27;;;;;;;12.55;60.52;100241.98;1694130;78;10000403;-74
2021/04/30 01:20:28;;;;;;;9.20;7.25;;;;;;;12.54;60.52;100238.50;1816637;78;21367;-74
2021/04/30 01:22:55;;;;;;;8.53;7.62;;;;;;;12.55;60.60;100243.32;1809467;78;21187;-74
2021/04/30 01:25:29;;;;;;;9.17;7.60;;;;;;;12.55;60.58;100228.58;1803241;78;21193;-74
2021/04/30 01:27:56;;;;;;;8.08;6.85;;;;;;;12.54;60.56;100220.30;1825265;78;21355;-74
2021/04/30 01:30:30;;;;;;;9.60;6.80;;;;;;;12.53;60.50;100226.16;1814436;78;21179;-74
2021/04/30 01:32:58;;;;;;;10.72;6.90;;;;;;;12.54;60.53;100221.63;1815662;78;21651;-75
2021/04/30 01:35:30;;;;;;;9.17;7.27;;;;;;;12.51;60.43;100222.98;1829277;78;21219;-77
2021/04/30 01:37:59;;;;;;;8.27;6.83;;;;;;;12.50;60.46;100221.36;1818931;78;22177;-76
2021/04/30 01:40:30;;;;;;;10.90;6.97;;;;;;;12.51;60.52;100214.95;1814742;78;21183;-74
2021/04/30 01:43:06;;;;;;;9.05;7.67;;;;;;;12.51;60.41;100218.97;1811971;78;21479;-74
2021/04/30 01:45:52;;;;;;;9.27;6.43;;;;;;;12.51;60.29;100216.29;1830124;77;21180;-75
2021/04/30 01:48:25;;;;;;;8.48;7.08;;;;;;;12.51;60.40;100212.27;1819871;78;21440;-73
2021/04/30 01:50:53;;;;;;;;;;;;;;;12.50;60.26;100211.98;1831395;77;21678;-73
2021/04/30 01:53:24;;;;;;;8.28;6.72;;;;;;;12.50;60.33;100211.98;1817367;78;20293;-73
2021/04/30 01:55:52;;;;;;;9.10;6.95;;;;;;;12.49;60.31;100209.59;1822068;78;21696;-75
2021/04/30 01:58:20;;;;;;;9.68;6.67;;;;;;;12.49;60.27;100217.63;1809888;78;21817;-74
2021/04/30 02:00:48;;;;;;;8.90;6.92;;;;;;;12.48;60.25;100208.80;1819681;78;21061;-74
2021/04/30 02:03:16;;;;;;;8.77;7.27;;;;;;;12.49;60.21;100205.03;1772104;78;21557;-74
2021/04/30 02:05:44;;;;;;;7.85;6.70;;;;;;;12.49;60.23;100202.91;1814336;78;22183;-74
2021/04/30 02:08:13;;;;;;;7.08;5.97;;;;;;;12.48;60.26;100195.41;1818997;78;21183;-74
2021/04/30 02:10:42;;;;;;;9.17;7.10;;;;;;;12.47;60.32;100188.46;1815697;78;21356;-75
2021/04/30 02:13:10;;;;;;;7.60;6.80;;;;;;;12.49;60.28;100194.86;1822622;78;22089;-75
2021/04/30 02:15:40;;;;;;;7.80;7.00;;;;;;;12.47;60.34;100186.30;1826794;77;21254;-75
2021/04/30 02:18:09;;;;;;;10.13;6.97;;;;;;;12.46;60.33;100185.50;1809858;78;21187;-74
2021/04/30 02:20:39;;;;;;;8.83;7.08;;;;;;;12.44;60.31;100189.02;1807599;77;21665;-73
2021/04/30 02:23:06;;;;;;;8.85;7.03;;;;;;;12.41;60.35;100183.67;1814730;77;22302;-75
2021/04/30 02:25:34;;;;;;;8.28;6.30;;;;;;;12.40;60.40;100182.08;1819912;78;21152;-73
2021/04/30 02:28:03;;;;;;;9.33;7.87;;;;;;;12.37;60.38;100177.78;1818968;78;21183;-74
2021/04/30 02:30:33;;;;;;;9.03;6.87;;;;;;;12.36;60.34;100183.69;1815973;78;21298;-74
2021/04/30 02:33:01;;;;;;;8.83;7.05;;;;;;;12.35;60.37;100186.66;1817765;78;21232;-74
2021/04/30 02:35:35;;;;;;;9.43;6.80;;;;;;;12.34;60.37;100186.37;1798044;78;21579;-74
2021/04/30 02:38:06;;;;;;;8.85;7.10;;;;;;;12.32;60.38;100182.65;1809523;78;21429;-74
2021/04/30 02:40:34;;;;;;;7.95;7.15;;;;;;;12.30;60.49;100185.34;1814811;78;21264;-73
2021/04/30 02:43:05;;;;;;;9.13;7.10;;;;;;;12.28;60.61;100178.14;1810628;77;21185;-74
2021/04/30 02:45:33;;;;;;;10.15;7.50;;;;;;;12.25;60.60;100180.82;1820135;78;21205;-74
2021/04/30 02:48:01;;;;;;;7.80;6.73;;;;;;;12.23;60.68;100182.17;1815205;78;22333;-74
2021/04/30 02:50:30;;;;;;;9.10;7.35;;;;;;;12.19;60.64;100185.94;1816854;77;21522;-74
2021/04/30 02:52:58;;;;;;;9.40;7.53;;;;;;;12.16;60.74;100192.64;1812231;77;21184;-74
2021/04/30 02:55:25;;;;;;;9.38;7.58;;;;;;;12.15;60.87;100186.23;1818000;78;21210;-74
2021/04/30 02:57:55;;;;;;;8.48;7.53;;;;;;;12.14;60.91;100189.97;1816441;78;21166;-75
2021/04/30 03:00:25;;;;;;;8.70;7.60;;;;;;;12.14;60.99;100193.98;1804761;78;21497;-75
2021/04/30 03:02:54;;;;;;;10.08;7.92;;;;;;;12.15;61.18;100194.27;1811573;78;21232;-76
2021/04/30 03:05:22;;;;;;;9.88;8.20;;;;;;;12.16;61.22;100186.49;1812834;78;21683;-76
2021/04/30 03:07:49;;;;;;;10.55;8.50;;;;;;;12.19;61.22;100182.72;1841797;77;21276;-74
2021/04/30 03:10:17;;;;;;;9.53;8.08;;;;;;;12.22;61.24;100195.30;1815680;77;21188;-75
2021/04/30 03:12:46;;;;;;;9.45;7.67;;;;;;;12.25;61.25;100194.75;1827810;77;21266;-75
2021/04/30 03:15:16;;;;;;;9.83;8.10;;;;;;;12.26;61.19;100199.02;1847709;77;21127;-75
2021/04/30 03:17:43;;;;;;;9.90;7.87;;;;;;;12.25;61.13;100190.73;1825745;77;22797;-76
2021/04/30 03:20:13;;;;;;;9.43;7.60;;;;;;;12.26;61.15;100188.31;1849565;75;21308;-76
2021/04/30 03:22:40;;;;;;;9.35;8.03;;;;;;;12.27;61.16;100190.70;1852053;77;21204;-72
2021/04/30 03:25:10;;;;;;;8.45;7.58;;;;;;;12.28;61.12;100192.86;1834646;77;22249;-74
2021/04/30 03:27:38;;;;;;;9.10;7.58;;;;;;;12.28;61.13;100189.64;1834229;77;21176;-74
2021/04/30 03:30:07;;;;;;;11.28;8.33;;;;;;;12.28;61.08;100199.02;1838318;77;21183;-74
2021/04/30 03:32:36;;;;;;;8.75;7.42;;;;;;;12.29;61.07;100207.30;1820100;78;21176;-76
2021/04/30 03:35:05;;;;;;;10.25;8.25;;;;;;;12.30;61.05;100203.53;1823500;78;21184;-74
2021/04/30 03:37:33;;;;;;;9.18;7.85;;;;;;;12.30;61.06;100202.20;1811828;78;22488;-74
2021/04/30 03:40:02;;;;;;;9.68;7.92;;;;;;;12.33;61.09;100204.88;1810480;78;21767;-75
2021/04/30 03:42:31;;;;;;;9.98;8.25;;;;;;;12.34;61.10;100203.78;1815958;78;21167;-74
2021/04/30 03:44:58;;;;;;;9.60;8.23;;;;;;;12.34;61.08;100201.93;1820405;78;21261;-74
2021/04/30 03:47:26;;;;;;;10.13;8.00;;;;;;;12.38;61.11;100204.31;1802552;79;21714;-74
2021/04/30 03:49:53;;;;;;;12.57;8.17;;;;;;;12.42;60.97;100200.53;1822024;78;21382;-73
2021/04/30 03:52:21;;;;;;;8.63;6.87;;;;;;;12.47;60.90;100200.52;1812702;78;21308;-74
2021/04/30 03:54:49;;;;;;;11.40;8.07;;;;;;;12.54;60.88;100194.84;1848554;77;21183;-74
2021/04/30 03:57:17;;;;;;;10.03;7.87;;;;;;;12.58;60.71;100194.00;1852333;77;21361;-75
2021/04/30 03:59:45;;;;;;;10.97;8.43;;;;;;;12.63;60.69;100191.81;1805182;78;21251;-73
2021/04/30 04:02:12;;;;;;;8.43;7.53;;;;;;;12.66;60.72;100197.95;1845050;77;22313;-73
2021/04/30 04:04:40;;;;;;;10.63;7.63;;;;;;;12.71;60.63;100201.95;1796258;78;21392;-73
2021/04/30 04:07:08;;;;;;;8.87;7.23;;;;;;;12.76;60.72;100201.09;1809603;78;21500;-75
2021/04/30 04:09:35;;;;;;;10.30;7.93;;;;;;;12.81;60.71;100202.41;1802587;77;22001;-75
2021/04/30 04:12:05;;;;;;;9.33;7.63;;;;;;;12.85;60.62;100204.23;1816791;77;21431;-77
2021/04/30 04:14:35;;;;;;;10.50;7.60;;;;;;;12.91;60.54;100205.00;1816386;77;22173;-76
2021/04/30 04:17:02;;;;;;;8.40;7.23;;;;;;;12.94;60.32;100200.97;1816227;78;21458;-75
2021/04/30 04:19:32;;;;;;;9.73;8.10;;;;;;;12.97;60.18;100195.84;1821644;78;21659;-77
2021/04/30 04:22:00;;;;;;;8.87;7.30;;;;;;;12.99;60.17;100195.00;1815196;77;21522;-77
2021/04/30 04:24:28;;;;;;;9.50;6.97;;;;;;;13.03;60.20;100187.19;1807775;78;21441;-76
2021/04/30 04:26:56;;;;;;;8.07;6.57;;;;;;;13.06;60.23;100185.29;1817499;77;21399;-76
2021/04/30 04:29:23;;;;;;;9.03;7.00;;;;;;;13.11;60.00;100186.59;1807684;77;21390;-77
2021/04/30 04:31:51;;;;;;;9.13;7.00;;;;;;;13.17;59.99;100183.34;1810189;77;21416;-76
2021/04/30 04:34:19;;;;;;;10.03;6.93;;;;;;;13.21;59.93;100187.05;1812145;77;21481;-74
2021/04/30 04:36:46;;;;;;;8.43;6.73;;;;;;;13.26;59.79;100180.30;1809933;78;21404;-75
2021/04/30 04:39:14;;;;;;;8.20;6.50;;;;;;;13.27;59.61;100175.22;1806552;78;21562;-75
2021/04/30 04:41:42;;;;;;;7.70;6.10;;;;;;;13.31;59.61;100167.65;1825762;77;21468;-75
2021/04/30 04:44:09;;;;;;;7.67;6.27;;;;;;;13.36;59.48;100167.61;1812696;78;21958;-74
2021/04/30 04:46:37;;;;;;;8.07;6.37;;;;;;;13.42;59.44;100168.33;1815572;78;21471;-72
2021/04/30 04:49:04;;;;;;;7.87;6.43;;;;;;;13.47;59.37;100165.60;1823772;78;21774;-73
2021/04/30 04:51:33;;;;;;;7.40;6.10;;;;;;;13.50;59.21;100161.56;1813071;78;21381;-74
2021/04/30 04:54:01;;;;;;;9.70;6.23;;;;;;;13.53;59.05;100164.47;1818554;77;21415;-76
2021/04/30 04:56:28;;;;;;;8.20;5.73;;;;;;;13.59;59.00;100158.51;1819426;78;21261;-76
2021/04/30 04:58:56;;;;;;;7.10;5.90;;;;;;;13.65;58.77;100155.99;1684110;78;10000279;-75
2021/04/30 05:01:24;;;;;;;8.03;5.67;;;;;;;13.71;58.60;100154.84;1813553;78;21428;-74
2021/04/30 05:03:51;;;;;;;8.23;5.60;;;;;;;13.77;58.38;100155.05;1817145;78;21480;-74
2021/04/30 05:06:19;;;;;;;6.80;5.50;;;;;;;13.87;58.26;100158.14;1800332;79;21345;-73
2021/04/30 05:08:47;;;;;;;7.03;5.00;;;;;;;13.98;57.94;100156.12;1845785;77;21433;-74
2021/04/30 05:11:16;;;;;;;7.87;5.70;;;;;;;14.12;57.72;100157.56;1837583;77;21444;-74
2021/04/30 05:13:43;;;;;;;6.60;5.33;;;;;;;14.26;57.40;100149.02;1841006;77;22139;-75
2021/04/30 05:16:13;;;;;;;6.23;4.70;;;;;;;14.43;56.99;100152.53;1850649;77;21784;-74
2021/04/30 05:18:43;;;;;;;5.53;4.60;;;;;;;14.60;55.99;100158.75;1843653;77;21405;-74
2021/04/30 05:21:12;;;;;;;7.75;4.65;;;;;;;14.73;54.73;100153.96;1849328;77;21319;-74
2021/04/30 05:23:40;;;;;;;8.13;4.70;;;;;;;14.80;54.03;100157.06;1849268;77;21124;-74
2021/04/30 05:26:08;;;;;;;5.77;4.13;;;;;;;14.82;53.42;100150.86;1854773;77;21439;-74
2021/04/30 05:28:37;;;;;;;6.57;4.37;;;;;;;14.85;52.83;100142.20;1849977;76;21526;-74
2021/04/30 05:31:05;;;;;;;6.23;4.30;;;;;;;14.85;52.36;100142.20;1835174;77;21505;-74
2021/04/30 05:33:32;;;;;;;5.70;4.47;;;;;;;14.88;53.10;100141.61;1849237;77;21555;-74
2021/04/30 05:36:00;;;;;;;6.70;4.57;;;;;;;14.88;53.10;100141.61;1816599;77;21538;-74
2021/04/30 05:38:28;;;;;;;5.50;4.17;;;;;;;14.90;52.21;100135.92;1804218;77;21658;-74
2021/04/30 05:40:56;;;;;;;5.60;3.93;;;;;;;14.98;52.33;100137.95;1788758;78;21614;-73
2021/04/30 05:43:24;;;;;;;6.93;4.03;;;;;;;14.98;52.33;100137.95;1797053;78;21537;-74
2021/04/30 05:45:51;;;;;;;6.80;4.60;;;;;;;15.02;52.18;100140.29;1804749;79;21735;-73
2021/04/30 05:48:19;;;;;;;6.23;4.30;;;;;;;15.07;51.91;100144.24;1822244;77;22605;-74
2021/04/30 05:50:47;;;;;;;5.70;3.93;;;;;;;15.13;52.02;100136.30;1815382;78;22691;-73
2021/04/30 05:53:14;;;;;;;6.10;4.50;;;;;;;15.19;52.01;100139.16;1821791;78;21653;-73
2021/04/30 05:55:42;;;;;;;6.97;4.07;;;;;;;15.29;51.99;100133.34;1819186;77;21597;-73
2021/04/30 05:58:12;;;;;;;7.73;4.27;;;;;;;15.38;51.88;100134.24;1803830;78;21687;-74
2021/04/30 06:00:39;;;;;;;6.57;4.40;;;;;;;15.47;51.56;100136.49;1825830;77;21888;-74
2021/04/30 06:03:07;;;;;;;6.20;4.20;;;;;;;15.47;51.56;100136.49;1815908;77;22673;-74
2021/04/30 06:05:35;;;;;;;6.73;4.33;;;;;;;15.69;51.57;100131.75;1846136;77;21842;-74
2021/04/30 06:08:04;;;;;;;8.57;4.60;;;;;;;15.69;51.57;100131.75;1820295;77;21777;-73
2021/04/30 06:10:32;;;;;;;5.27;4.03;;;;;;;15.83;51.37;100131.20;1815487;78;21918;-73
2021/04/30 06:13:06;;;;;;;6.30;4.17;;;;;;;15.97;51.30;100132.52;1814880;78;21833;-74
2021/04/30 06:15:34;;;;;;;6.40;4.63;;;;;;;16.13;50.96;100123.55;1810440;77;22304;-73
2021/04/30 06:18:02;;;;;;;5.53;4.10;;;;;;;16.23;50.45;100125.20;1829510;77;22323;-75
2021/04/30 06:20:30;;;;;;;6.27;4.13;;;;;;;16.29;50.39;100119.39;1844626;77;21857;-74
2021/04/30 06:22:58;;;;;;;5.57;4.20;;;;;;;16.36;50.47;100122.45;1812695;78;21923;-72
2021/04/30 06:25:26;;;;;;;5.40;4.00;;;;;;;16.49;50.66;100122.16;1820535;78;23067;-73
2021/04/30 06:27:54;;;;;;;7.23;4.30;;;;;;;16.64;50.84;100127.15;1826105;78;22467;-74
2021/04/30 06:30:22;;;;;;;5.73;4.27;;;;;;;16.77;50.26;100120.67;1830169;78;21986;-74
2021/04/30 06:32:49;;;;;;;5.27;3.83;;;;;;;16.79;50.15;100117.13;1826154;78;21896;-74
2021/04/30 06:35:18;;;;;;;5.90;4.63;;;;;;;16.78;50.50;100108.77;1824428;78;21923;-74
2021/04/30 06:37:46;;;;;;;5.97;5.00;;;;;;;16.77;50.40;100114.73;1826724;78;21458;-73
2021/04/30 06:40:14;;;;;;;7.07;4.83;;;;;;;16.80;50.67;100113.31;1821618;77;21362;-73
2021/04/30 06:42:43;;;;;;;7.53;4.47;;;;;;;16.80;50.82;100120.06;1797920;79;21208;-73
2021/04/30 06:45:11;;;;;;;6.90;4.83;;;;;;;16.81;50.91;100101.42;1820002;78;21415;-74
2021/04/30 06:47:39;;;;;;;6.97;4.60;;;;;;;16.86;50.84;100104.78;1818163;78;21249;-74
2021/04/30 06:50:08;;;;;;;7.37;4.40;;;;;;;16.89;50.86;100112.81;1804908;78;21599;-74
2021/04/30 06:52:38;;;;;;;7.37;4.73;;;;;;;16.92;50.58;100109.50;1801640;78;21364;-73
2021/04/30 06:55:07;;;;;;;6.67;4.60;;;;;;;16.87;50.75;100116.37;1810240;77;21104;-74
2021/04/30 06:57:37;;;;;;;6.58;4.45;;;;;;;16.85;51.15;100119.95;1831678;77;21789;-74
2021/04/30 07:00:06;;;;;;;7.00;4.13;;;;;;;16.94;51.38;100114.02;1821544;77;21140;-74
2021/04/30 07:02:33;;;;;;;5.93;4.33;;;;;;;17.00;51.35;100114.69;1826764;77;21176;-74
2021/04/30 07:05:01;;;;;;;5.57;4.20;;;;;;;17.08;51.42;100112.59;1816481;78;22328;-74
2021/04/30 07:07:29;;;;;;;5.77;4.30;;;;;;;17.17;51.31;100112.61;1805041;78;21691;-73
2021/04/30 07:09:56;;;;;;;5.20;3.90;;;;;;;17.28;51.11;100115.30;1816775;77;21183;-73
2021/04/30 07:12:24;;;;;;;6.80;4.20;;;;;;;17.39;50.76;100110.39;1801856;78;21180;-74
2021/04/30 07:15:11;;;;;;;5.83;3.60;;;;;;;17.51;50.19;100105.20;1835872;77;23786;-74
2021/04/30 07:17:39;;;;;;;6.23;3.73;;;;;;;17.47;50.21;100112.31;1800482;77;21141;-73
2021/04/30 07:20:09;;;;;;;6.00;4.20;;;;;;;17.48;50.25;100112.02;1795707;78;21599;-72
2021/04/30 07:22:37;;;;;;;7.30;3.90;;;;;;;17.52;49.81;100114.87;1836512;77;21203;-73
2021/04/30 07:25:06;;;;;;;4.97;3.37;;;;;;;17.50;49.24;100108.98;1830420;76;21215;-75
2021/04/30 07:27:33;;;;;;;4.03;3.23;;;;;;;17.47;49.32;100109.08;1807915;77;21219;-73
2021/04/30 07:30:04;;;;;;;5.50;3.23;;;;;;;17.49;48.84;100112.25;1797856;78;21120;-74
2021/04/30 07:32:32;;;;;;;6.90;3.63;;;;;;;17.61;48.67;100109.51;1804614;78;21385;-74
2021/04/30 07:35:01;;;;;;;5.77;3.33;;;;;;;17.73;48.39;100111.02;1801500;78;21251;-73
2021/04/30 07:37:29;;;;;;;6.37;3.00;;;;;;;17.89;47.83;100100.03;1797412;78;21192;-73
2021/04/30 07:39:57;;;;;;;5.53;3.13;;;;;;;18.10;47.21;100099.39;1804306;77;21203;-73
2021/04/30 07:42:26;;;;;;;5.07;3.20;;;;;;;18.30;46.41;100093.36;1803109;78;21132;-74
2021/04/30 07:44:54;;;;;;;4.90;3.50;;;;;;;18.46;45.96;100079.58;1814275;77;21222;-73
2021/04/30 07:47:22;;;;;;;5.10;3.47;;;;;;;18.63;45.38;100085.50;1808147;78;21159;-74
2021/04/30 07:49:51;;;;;;;5.67;3.67;;;;;;;18.78;45.17;100088.27;1804695;77;21188;-72
2021/04/30 07:52:19;;;;;;;5.00;3.43;;;;;;;18.93;44.90;100085.60;1802369;77;21642;-73
2021/04/30 07:54:47;;;;;;;5.93;3.17;;;;;;;19.11;44.26;100077.63;1804808;78;21650;-73
2021/04/30 07:57:17;;;;;;;5.47;3.70;;;;;;;19.24;43.25;100072.31;1833394;76;21252;-74
2021/04/30 07:59:45;;;;;;;4.60;3.30;;;;;;;19.22;42.88;100075.36;1833991;77;21200;-74
2021/04/30 08:02:12;;;;;;;5.23;3.43;;;;;;;19.16;43.46;100076.67;1834450;76;21164;-74
2021/04/30 08:04:40;;;;;;;4.30;2.73;;;;;;;19.20;43.07;100074.32;1833443;77;21144;-72
2021/04/30 08:07:08;;;;;;;5.37;3.43;;;;;;;19.25;42.87;100074.72;1833905;76;22127;-73
2021/04/30 08:09:36;;;;;;;7.23;3.50;;;;;;;19.23;42.74;100068.03;1833899;77;22232;-73
2021/04/30 08:12:05;;;;;;;5.40;3.50;;;;;;;19.25;43.11;100069.30;1816733;78;21242;-73
2021/04/30 08:14:35;;;;;;;6.50;2.90;;;;;;;19.35;42.66;100075.69;1820452;78;21148;-73
2021/04/30 08:17:03;;;;;;;5.83;3.33;;;;;;;19.46;43.06;100065.27;1808148;77;21690;-73
2021/04/30 08:19:32;;;;;;;5.50;3.13;;;;;;;19.59;42.37;100059.37;1809526;77;21626;-74
2021/04/30 08:22:00;;;;;;;5.17;3.30;;;;;;;19.63;42.56;100049.45;1846578;77;21426;-76
2021/04/30 08:24:28;;;;;;;5.10;3.27;;;;;;;19.65;42.31;100051.31;1800672;77;21678;-74
2021/04/30 08:26:58;;;;;;;5.40;3.27;;;;;;;19.65;41.96;100048.60;1806515;78;21171;-75
2021/04/30 08:29:26;;;;;;;5.67;3.47;;;;;;;19.63;41.88;100043.50;1798160;78;21120;-74
2021/04/30 08:31:54;;;;;;;4.67;2.80;;;;;;;19.64;42.35;100047.00;1821822;78;21128;-73
2021/04/30 08:34:22;;;;;;;5.23;3.20;;;;;;;19.72;41.87;100047.51;1806375;78;21321;-74
2021/04/30 08:36:52;;;;;;;5.30;3.57;;;;;;;19.73;41.83;100043.66;1806575;78;21743;-74
2021/04/30 08:39:20;;;;;;;5.10;3.50;;;;;;;19.76;41.92;100047.07;1817970;78;21147;-73
2021/04/30 08:41:48;;;;;;;4.63;3.47;;;;;;;19.89;42.39;100041.94;1821118;77;21136;-74
2021/04/30 08:44:16;;;;;;;4.90;3.43;;;;;;;20.03;41.95;100040.30;1794753;78;21599;-74
2021/04/30 08:46:44;;;;;;;5.33;3.43;;;;;;;20.13;41.56;100044.52;1820767;78;21682;-73
2021/04/30 08:49:12;;;;;;;4.67;2.90;;;;;;;20.20;41.63;100032.56;1810636;78;20973;-72
2021/04/30 08:51:41;;;;;;;5.37;3.50;;;;;;;20.26;41.40;100029.88;1815045;78;21179;-72
2021/04/30 08:54:09;;;;;;;3.90;2.97;;;;;;;20.28;40.86;100024.13;1815240;78;21172;-73
2021/04/30 08:56:44;;;;;;;5.23;3.13;;;;;;;20.31;41.37;100026.17;1825047;78;21175;-74
2021/04/30 08:59:07;;;;;;;4.40;3.03;;;;;;;20.41;41.61;100024.39;1841558;77;21199;-73
2021/04/30 09:01:35;;;;;;;4.67;3.17;;;;;;;20.52;40.81;100024.77;1776655;78;21156;-74
2021/04/30 09:04:07;;;;;;;4.43;2.80;;;;;;;20.55;40.93;100022.17;1810468;78;21139;-73
2021/04/30 09:06:38;;;;;;;4.60;3.00;;;;;;;20.58;40.51;100018.00;1811264;78;21124;-74
2021/04/30 09:09:17;;;;;;;5.20;2.70;;;;;;;20.60;41.00;100016.55;1817314;78;21599;-73
2021/04/30 09:11:48;;;;;;;5.00;2.67;;;;;;;20.66;40.82;100014.38;1808988;78;22134;-72
2021/04/30 09:14:32;;;;;;;6.10;2.67;;;;;;;20.74;40.33;100004.57;1822151;77;21121;-74
2021/04/30 09:19:59;;;;;;;3.60;2.60;;;;;;;20.84;40.79;100000.05;1834410;76;22654;-72
2021/04/30 09:22:31;;;;;;;6.17;3.17;;;;;;;20.90;40.47;100001.41;1808008;78;21783;-73
2021/04/30 09:25:03;;;;;;;3.87;2.60;;;;;;;21.01;40.03;99998.45;1814304;78;21201;-72
2021/04/30 09:27:46;;;;;;;5.80;2.90;;;;;;;21.04;39.60;100003.77;1779966;79;21212;-73
2021/04/30 09:30:30;;;;;;;4.60;2.73;;;;;;;21.07;40.12;99999.02;1744940;81;21149;-74
2021/04/30 09:33:15;;;;;;;5.30;2.87;;;;;;;21.15;40.03;99994.02;1753973;80;21216;-73
2021/04/30 09:35:56;;;;;;;5.27;2.87;;;;;;;21.18;39.76;99997.41;1773887;79;21619;-73
2021/04/30 09:38:32;;;;;;;4.07;2.57;;;;;;;21.21;39.63;99991.87;1780004;79;21358;-73
2021/04/30 09:41:09;;;;;;;5.03;2.67;;;;;;;21.29;40.26;99991.75;1747835;80;21137;-72
2021/04/30 09:43:49;;;;;;;6.60;3.53;;;;;;;21.43;39.88;99982.47;1748719;81;21625;-72
2021/04/30 09:46:32;;;;;;;4.50;2.97;;;;;;;21.58;39.76;99979.01;1782159;80;21607;-72
2021/04/30 09:49:11;;;;;;;5.13;2.70;;;;;;;21.65;39.47;99990.64;1758649;80;21093;-73
2021/04/30 09:51:52;;;;;;;4.20;3.10;;;;;;;21.67;38.61;99985.09;1735781;80;22153;-72
2021/04/30 09:54:28;;;;;;;4.23;2.60;;;;;;;21.57;39.23;99985.59;1749946;81;21187;-72
2021/04/30 09:57:21;;;;;;;6.00;2.73;;;;;;;21.56;39.54;99990.81;1732778;82;21145;-74
2021/04/30 09:59:59;;;;;;;4.67;3.03;;;;;;;21.58;39.40;99984.44;1744967;80;21192;-73
2021/04/30 10:02:32;;;;;;;6.83;2.97;;;;;;;21.62;39.35;99986.72;1752360;81;21655;-72
2021/04/30 10:05:28;;;;;;;6.10;3.00;;;;;;;21.67;39.28;99979.66;1763647;80;23047;-73
2021/04/30 10:07:58;;;;;;;4.43;3.13;;;;;;;21.57;39.16;99976.65;1745607;81;21563;-72
2021/04/30 10:10:26;;;;;;;5.37;3.20;;;;;;;21.50;39.74;99971.23;1741183;81;21173;-73
2021/04/30 10:12:57;;;;;;;5.23;3.03;;;;;;;21.53;39.57;99977.33;1755317;80;21206;-72
2021/04/30 10:15:25;;;;;;;4.60;2.83;;;;;;;21.59;39.55;99973.03;1754790;81;21747;-72
2021/04/30 10:17:57;;;;;;;5.33;3.33;;;;;;;21.64;39.94;99966.76;1745326;80;21652;-72
2021/04/30 10:20:25;;;;;;;5.20;2.90;;;;;;;21.72;39.54;99967.77;1741893;81;21711;-72
2021/04/30 10:22:57;;;;;;;5.03;2.97;;;;;;;21.79;39.76;99962.52;1745820;81;21171;-73
2021/04/30 10:25:26;;;;;;;4.80;2.90;;;;;;;21.92;39.05;99958.61;1749165;81;21151;-72
2021/04/30 10:27:55;;;;;;;6.00;3.07;;;;;;;22.05;39.04;99946.31;1722069;81;21215;-72
2021/04/30 10:30:41;;;;;;;6.47;3.40;;;;;;;22.17;39.46;99951.11;1736599;81;21695;-73
2021/04/30 10:33:34;;;;;;;4.53;3.00;;;;;;;22.33;39.45;99944.91;1733816;81;21243;-73
2021/04/30 10:36:31;;;;;;;7.83;3.70;;;;;;;22.53;39.08;99945.20;1755101;81;21635;-72
2021/04/30 10:39:02;;;;;;;5.10;3.00;;;;;;;22.73;39.00;99932.45;1743752;81;21203;-71
2021/04/30 10:41:36;;;;;;;5.77;3.27;;;;;;;22.93;38.67;99937.40;1751361;81;21690;-72
2021/04/30 10:44:22;;;;;;;5.03;3.00;;;;;;;23.03;38.24;99923.80;1754162;80;21610;-73
2021/04/30 10:47:03;;;;;;;5.20;3.20;;;;;;;23.11;38.61;99929.05;1729698;81;21228;-72
2021/04/30 10:49:31;;;;;;;5.77;3.30;;;;;;;23.20;38.13;99930.77;1765810;79;21639;-72
2021/04/30 10:52:17;;;;;;;5.10;3.27;;;;;;;23.20;37.90;99926.68;1772751;80;21707;-72
2021/04/30 10:54:49;;;;;;;5.37;3.20;;;;;;;23.18;38.03;99925.11;1749789;80;21156;-72
2021/04/30 10:57:19;;;;;;;6.03;3.20;;;;;;;23.16;38.21;99914.35;1726284;81;21180;-72
2021/04/30 10:59:52;;;;;;;5.03;3.60;;;;;;;23.09;38.17;99920.44;1748750;81;21122;-72
2021/04/30 11:02:31;;;;;;;6.83;3.10;;;;;;;22.98;37.72;99922.16;1743768;81;21277;-72
2021/04/30 11:05:13;;;;;;;6.30;3.40;;;;;;;22.84;37.98;99917.16;1749622;81;21735;-73
2021/04/30 11:07:49;;;;;;;4.73;3.50;;;;;;;22.74;38.33;99914.17;1749612;81;21152;-74
2021/04/30 11:10:27;;;;;;;4.87;3.10;;;;;;;22.81;38.36;99914.36;1739842;80;21170;-73
2021/04/30 11:13:16;;;;;;;6.60;3.33;;;;;;;22.86;38.45;99911.34;1739644;81;21301;-73
2021/04/30 11:15:51;;;;;;;5.27;3.10;;;;;;;22.89;38.58;99905.19;1746979;81;22158;-72
2021/04/30 11:18:21;;;;;;;6.77;3.37;;;;;;;22.89;38.60;99909.27;1775600;80;21655;-73
2021/04/30 11:21:09;;;;;;;5.03;3.20;;;;;;;22.96;38.55;99897.20;1746140;80;21566;-73
2021/04/30 11:23:46;;;;;;;5.03;3.27;;;;;;;22.96;38.27;99901.28;1747206;81;21635;-73
2021/04/30 11:26:17;;;;;;;5.03;2.97;;;;;;;22.89;38.62;99894.30;1730945;81;21176;-73
2021/04/30 11:29:00;;;;;;;5.77;3.40;;;;;;;22.92;38.63;99890.86;1770427;79;21555;-72
2021/04/30 11:31:30;;;;;;;6.77;3.50;;;;;;;22.97;38.55;99896.08;1769561;79;21214;-73
2021/04/30 11:34:15;;;;;;;6.17;3.15;;;;;;;22.96;38.51;99898.56;1738882;82;21173;-72
2021/04/30 11:36:53;;;;;;;5.43;3.40;;;;;;;22.99;38.53;99893.77;1747602;80;21198;-72
2021/04/30 11:39:35;;;;;;;4.37;3.10;;;;;;;23.04;38.25;99892.71;1751132;81;21149;-72
2021/04/30 11:42:09;;;;;;;5.30;3.23;;;;;;;23.05;38.41;99884.75;1744754;80;22238;-71
2021/04/30 11:44:43;;;;;;;4.50;2.83;;;;;;;23.12;38.17;99882.95;1731871;81;21199;-72